Time;durP1;ratioP1;P1;durP2;ratioP2;P2;SDS_P1;SDS_P2;PMS_P1;PMS_P2;Temp;Humidity;BMP_temperature;BMP_pressure;BME280_temperature;BME280_humidity;BME280_pressure;Samples;Min_cycle;Max_cycle;Signal;HPM_P1;HPM_P2
2023/04/30 00:01:05;;;;;;;24.27;11.02;;;17.30;76.30;;;;;;7381141;19;20054;-71
2023/04/30 00:03:34;;;;;;;22.48;11.98;;;17.20;75.50;;;;;;7380215;19;20010;-71
2023/04/30 00:06:05;;;;;;;21.58;10.88;;;17.10;75.60;;;;;;7402682;19;20019;-71
2023/04/30 00:08:34;;;;;;;25.17;9.75;;;17.00;76.10;;;;;;7380862;19;20018;-71
2023/04/30 00:11:03;;;;;;;23.80;11.38;;;16.90;76.60;;;;;;7381579;19;20019;-71
2023/04/30 00:13:31;;;;;;;19.70;11.18;;;16.90;76.40;;;;;;7381226;19;20010;-71
2023/04/30 00:16:00;;;;;;;18.52;10.45;;;16.80;76.50;;;;;;7381126;19;20351;-71
2023/04/30 00:18:29;;;;;;;17.88;10.48;;;16.80;77.00;;;;;;7380735;19;20010;-71
2023/04/30 00:20:57;;;;;;;19.65;10.52;;;16.80;77.20;;;;;;7399854;19;20243;-71
2023/04/30 00:23:28;;;;;;;18.95;10.50;;;16.80;76.80;;;;;;7379231;19;20015;-71
2023/04/30 00:25:57;;;;;;;21.10;11.43;;;16.70;76.90;;;;;;7379504;19;20058;-71
2023/04/30 00:28:26;;;;;;;21.75;11.18;;;16.60;77.90;;;;;;7380727;19;20023;-71
2023/04/30 00:30:55;;;;;;;21.05;11.00;;;16.60;77.30;;;;;;7378429;19;20007;-71
2023/04/30 00:33:23;;;;;;;20.23;11.18;;;16.60;77.60;;;;;;7377756;19;20279;-71
2023/04/30 00:35:52;;;;;;;18.35;10.30;;;16.60;77.30;;;;;;7401141;19;20078;-71
2023/04/30 00:38:21;;;;;;;21.08;11.43;;;16.50;77.70;;;;;;7379307;19;19998;-71
2023/04/30 00:40:52;;;;;;;19.33;11.20;;;16.50;77.50;;;;;;7379688;19;20062;-71
2023/04/30 00:43:20;;;;;;;;;;;16.40;77.70;;;;;;7379751;19;20030;-71
2023/04/30 00:45:49;;;;;;;20.65;10.88;;;16.30;78.20;;;;;;7379798;19;19907;-71
2023/04/30 00:48:18;;;;;;;22.17;12.27;;;16.30;78.40;;;;;;7401180;19;20240;-71
2023/04/30 00:50:47;;;;;;;19.52;11.23;;;16.30;78.50;;;;;;7386683;19;20015;-71
2023/04/30 00:53:15;;;;;;;24.15;11.32;;;16.30;78.60;;;;;;7386348;19;20014;-71
2023/04/30 00:55:46;;;;;;;21.00;11.45;;;16.30;79.50;;;;;;7385907;19;20002;-70
2023/04/30 00:58:17;;;;;;;21.02;11.50;;;16.20;78.30;;;;;;7387524;19;20013;-69
2023/04/30 01:00:46;;;;;;;21.85;11.50;;;16.20;78.60;;;;;;7385603;19;20066;-71
2023/04/30 01:03:15;;;;;;;23.27;12.38;;;16.20;78.60;;;;;;7408581;19;20389;-70
2023/04/30 01:05:44;;;;;;;21.45;11.50;;;16.10;78.60;;;;;;7387484;19;20006;-71
2023/04/30 01:08:13;;;;;;;24.77;12.38;;;16.00;79.00;;;;;;7386772;19;20361;-70
2023/04/30 01:10:47;;;;;;;22.85;12.63;;;16.00;79.00;;;;;;7385868;19;20003;-70
2023/04/30 01:13:26;;;;;;;25.73;11.73;;;16.00;79.10;;;;;;7389462;19;20007;-69
2023/04/30 01:16:01;;;;;;;22.48;11.73;;;16.00;79.10;;;;;;7392632;19;20019;-69
2023/04/30 01:18:35;;;;;;;23.95;11.88;;;16.00;78.90;;;;;;7393999;19;20275;-69
2023/04/30 01:21:06;;;;;;;21.65;12.80;;;15.90;79.50;;;;;;7408180;19;20019;-69
2023/04/30 01:23:52;;;;;;;21.92;12.80;;;15.90;79.60;;;;;;7384324;19;20003;-68
2023/04/30 01:26:31;;;;;;;27.00;13.05;;;15.80;79.80;;;;;;7385261;19;20016;-68
2023/04/30 01:29:04;;;;;;;22.42;12.40;;;15.80;79.70;;;;;;7385609;19;20266;-68
2023/04/30 01:31:33;;;;;;;23.08;11.82;;;15.80;80.00;;;;;;7386640;19;20027;-68
2023/04/30 01:34:02;;;;;;;27.40;12.38;;;15.80;80.10;;;;;;7383448;19;20371;-68
2023/04/30 01:36:49;;;;;;;26.95;12.40;;;15.80;80.80;;;;;;7385567;19;20014;-68
2023/04/30 01:39:37;;;;;;;24.00;11.98;;;15.80;80.20;;;;;;7407259;19;20014;-68
2023/04/30 01:42:12;;;;;;;23.55;12.43;;;15.80;80.10;;;;;;7385213;19;20035;-68
2023/04/30 01:45:11;;;;;;;23.05;11.52;;;15.80;80.20;;;;;;7382889;19;20377;-68
2023/04/30 01:47:47;;;;;;;28.20;13.23;;;15.70;80.00;;;;;;7384773;19;20066;-68
2023/04/30 01:50:27;;;;;;;24.50;12.75;;;15.70;80.10;;;;;;7384578;19;20020;-68
2023/04/30 01:52:57;;;;;;;26.88;13.43;;;15.70;80.30;;;;;;7385164;19;20051;-68
2023/04/30 01:55:31;;;;;;;22.70;12.93;;;15.70;80.10;;;;;;7384231;19;20010;-68
2023/04/30 01:58:03;;;;;;;27.13;12.90;;;15.70;80.20;;;;;;7383236;19;20626;-68
2023/04/30 02:00:35;;;;;;;26.85;13.80;;;15.70;80.40;;;;;;7379758;19;20075;-68
2023/04/30 02:03:04;;;;;;;24.23;13.73;;;15.70;80.50;;;;;;7404322;19;20003;-68
2023/04/30 02:05:32;;;;;;;23.95;12.48;;;15.70;80.60;;;;;;7384103;19;20028;-68
2023/04/30 02:08:02;;;;;;;22.92;12.70;;;15.70;80.50;;;;;;7384281;19;20016;-68
2023/04/30 02:10:31;;;;;;;23.90;13.73;;;15.70;80.70;;;;;;7384613;19;20029;-68
2023/04/30 02:12:59;;;;;;;32.05;14.68;;;15.70;80.50;;;;;;7383903;19;20006;-68
2023/04/30 02:15:28;;;;;;;27.95;14.32;;;15.70;80.70;;;;;;7388531;19;20075;-67
2023/04/30 02:17:59;;;;;;;31.92;15.38;;;15.70;80.70;;;;;;7404768;19;20003;-68
2023/04/30 02:20:28;;;;;;;24.88;14.85;;;15.70;80.90;;;;;;7383979;19;20023;-68
2023/04/30 02:22:57;;;;;;;29.45;14.48;;;15.80;80.90;;;;;;7383537;19;20059;-68
2023/04/30 02:25:25;;;;;;;27.23;15.05;;;15.70;81.00;;;;;;7383365;19;20012;-68
2023/04/30 02:27:54;;;;;;;34.88;15.27;;;15.70;81.00;;;;;;7382986;19;20027;-68
2023/04/30 02:30:23;;;;;;;28.85;15.30;;;15.70;81.20;;;;;;7384041;19;20011;-68
2023/04/30 02:32:54;;;;;;;28.25;13.95;;;15.70;81.30;;;;;;7404470;19;20002;-68
2023/04/30 02:35:25;;;;;;;28.10;13.63;;;15.70;81.00;;;;;;7383584;19;20058;-68
2023/04/30 02:37:54;;;;;;;35.47;16.40;;;15.70;81.00;;;;;;7382615;19;20014;-68
2023/04/30 02:40:23;;;;;;;27.98;15.38;;;15.70;81.30;;;;;;7382633;19;20377;-67
2023/04/30 02:42:53;;;;;;;25.55;13.98;;;15.70;81.40;;;;;;7383544;19;20006;-68
2023/04/30 02:45:22;;;;;;;26.02;13.98;;;15.60;81.30;;;;;;7386177;19;20019;-68
2023/04/30 02:47:51;;;;;;;34.90;14.88;;;15.60;81.60;;;;;;7402806;19;20010;-68
2023/04/30 02:50:19;;;;;;;30.65;14.27;;;15.70;81.70;;;;;;7382516;19;20062;-68
2023/04/30 02:52:50;;;;;;;31.65;14.13;;;15.60;81.70;;;;;;7382287;19;20010;-68
2023/04/30 02:55:19;;;;;;;30.58;14.77;;;15.60;81.90;;;;;;7383192;19;20402;-68
2023/04/30 02:57:48;;;;;;;24.83;14.65;;;15.60;81.80;;;;;;7383039;19;20096;-67
2023/04/30 03:00:17;;;;;;;28.35;14.38;;;15.60;82.70;;;;;;7404421;19;20055;-67
2023/04/30 03:02:45;;;;;;;27.45;13.88;;;15.60;81.70;;;;;;7382411;19;20074;-67
2023/04/30 03:05:15;;;;;;;25.42;12.77;;;15.60;82.00;;;;;;7381898;19;20027;-68
2023/04/30 03:07:44;;;;;;;25.52;13.23;;;15.60;81.90;;;;;;7382605;19;20015;-68
2023/04/30 03:10:17;;;;;;;24.40;13.75;;;15.60;81.70;;;;;;7383062;19;20007;-68
2023/04/30 03:12:46;;;;;;;25.33;14.23;;;15.60;81.90;;;;;;7382931;19;20026;-67
2023/04/30 03:15:15;;;;;;;27.83;14.45;;;15.60;82.00;;;;;;7402667;19;20050;-67
2023/04/30 03:17:43;;;;;;;33.30;14.48;;;15.60;81.80;;;;;;7382465;19;20252;-68
2023/04/30 03:20:14;;;;;;;28.60;14.05;;;15.60;81.80;;;;;;7381823;19;20006;-68
2023/04/30 03:22:43;;;;;;;26.25;13.60;;;15.60;81.90;;;;;;7382333;19;20006;-67
2023/04/30 03:25:14;;;;;;;26.23;14.05;;;15.60;81.90;;;;;;7382738;19;20082;-67
2023/04/30 03:27:43;;;;;;;27.65;14.07;;;15.60;81.70;;;;;;7383364;19;20078;-68
2023/04/30 03:30:12;;;;;;;25.05;12.77;;;15.60;81.90;;;;;;7402454;19;20018;-67
2023/04/30 03:32:41;;;;;;;24.13;13.40;;;15.60;81.90;;;;;;7382147;19;20007;-67
2023/04/30 03:35:10;;;;;;;24.80;13.38;;;15.50;81.50;;;;;;7386235;19;20018;-67
2023/04/30 03:37:39;;;;;;;24.02;13.27;;;15.50;81.50;;;;;;7383746;19;20935;-67
2023/04/30 03:40:09;;;;;;;29.65;13.00;;;15.50;81.50;;;;;;7381995;19;19998;-67
2023/04/30 03:42:41;;;;;;;24.38;12.18;;;15.50;81.50;;;;;;7382486;19;20361;-67
2023/04/30 03:45:10;;;;;;;27.40;14.65;;;15.40;81.50;;;;;;7402298;19;20078;-67
2023/04/30 03:47:39;;;;;;;31.30;14.43;;;15.40;81.60;;;;;;7380985;19;20062;-67
2023/04/30 03:50:09;;;;;;;25.40;12.88;;;15.40;81.90;;;;;;7380601;19;20006;-69
2023/04/30 03:52:38;;;;;;;26.40;11.75;;;15.30;82.00;;;;;;7380532;19;20003;-67
2023/04/30 03:55:09;;;;;;;28.58;12.15;;;15.30;82.00;;;;;;7380471;19;20027;-67
2023/04/30 03:57:42;;;;;;;21.50;12.07;;;15.30;81.50;;;;;;7380095;19;20030;-68
2023/04/30 04:00:12;;;;;;;26.00;12.13;;;15.20;81.90;;;;;;7401086;19;20011;-67
2023/04/30 04:02:41;;;;;;;24.60;12.05;;;15.20;82.00;;;;;;7380409;19;20030;-68
2023/04/30 04:05:10;;;;;;;25.65;11.70;;;15.30;82.00;;;;;;7379112;19;20010;-67
2023/04/30 04:07:39;;;;;;;24.50;11.57;;;15.30;81.90;;;;;;7380763;19;20019;-67
2023/04/30 04:10:09;;;;;;;24.02;13.32;;;15.20;81.90;;;;;;7381037;19;20007;-68
2023/04/30 04:12:42;;;;;;;24.02;12.25;;;15.20;82.00;;;;;;7379456;19;20014;-67
2023/04/30 04:15:12;;;;;;;23.13;11.63;;;15.20;81.90;;;;;;7402122;19;20007;-67
2023/04/30 04:17:40;;;;;;;25.65;11.98;;;15.20;81.70;;;;;;7379730;19;20020;-67
2023/04/30 04:20:11;;;;;;;20.50;12.68;;;15.10;82.20;;;;;;7379617;19;20314;-68
2023/04/30 04:22:40;;;;;;;30.50;12.15;;;15.10;82.20;;;;;;7379484;19;20032;-67
2023/04/30 04:25:09;;;;;;;29.63;12.65;;;15.20;82.00;;;;;;7384006;19;20019;-67
2023/04/30 04:27:41;;;;;;;26.52;12.68;;;15.10;82.20;;;;;;7385927;19;20373;-67
2023/04/30 04:30:11;;;;;;;23.83;12.25;;;15.10;82.60;;;;;;7409212;19;20425;-67
2023/04/30 04:32:45;;;;;;;22.88;12.48;;;15.10;82.60;;;;;;7388119;19;20034;-67
2023/04/30 04:35:14;;;;;;;19.55;12.05;;;15.10;82.60;;;;;;7387425;19;20010;-67
2023/04/30 04:37:43;;;;;;;28.65;13.73;;;15.00;83.00;;;;;;7388344;19;20086;-67
2023/04/30 04:40:13;;;;;;;24.70;12.13;;;15.00;82.90;;;;;;7385682;19;20250;-67
2023/04/30 04:42:44;;;;;;;23.50;12.65;;;15.00;83.20;;;;;;7383759;19;20019;-67
2023/04/30 04:45:14;;;;;;;34.13;13.23;;;15.00;83.40;;;;;;7407349;19;20066;-68
2023/04/30 04:47:43;;;;;;;25.08;13.20;;;15.00;83.00;;;;;;7386398;19;20007;-68
2023/04/30 04:50:13;;;;;;;20.95;12.80;;;15.00;83.00;;;;;;7387226;19;20020;-68
2023/04/30 04:52:42;;;;;;;23.15;11.95;;;15.00;83.00;;;;;;7387165;19;20013;-68
2023/04/30 04:55:11;;;;;;;21.05;13.27;;;15.00;82.80;;;;;;7386079;19;20007;-68
2023/04/30 04:57:40;;;;;;;24.17;13.07;;;15.00;82.90;;;;;;7387072;19;20369;-68
2023/04/30 05:00:13;;;;;;;28.02;13.00;;;15.00;83.00;;;;;;7405505;19;20539;-68
2023/04/30 05:02:42;;;;;;;27.52;13.30;;;15.00;83.00;;;;;;7386413;19;19998;-68
2023/04/30 05:05:11;;;;;;;24.45;13.23;;;15.00;83.30;;;;;;7384327;19;20070;-68
2023/04/30 05:07:40;;;;;;;28.13;13.52;;;15.00;83.20;;;;;;7384921;19;20378;-68
2023/04/30 05:10:10;;;;;;;25.65;14.55;;;15.00;83.30;;;;;;7384830;19;20007;-68
2023/04/30 05:12:39;;;;;;;24.40;14.15;;;15.00;83.50;;;;;;7386782;19;20014;-67
2023/04/30 05:15:09;;;;;;;24.17;13.13;;;15.00;83.40;;;;;;7404864;19;20361;-68
2023/04/30 05:17:40;;;;;;;29.98;15.20;;;15.00;83.40;;;;;;7385161;19;20003;-68
2023/04/30 05:20:11;;;;;;;28.40;15.20;;;15.00;83.40;;;;;;7385218;19;20009;-67
2023/04/30 05:22:40;;;;;;;26.60;14.97;;;14.90;83.60;;;;;;7384617;19;20369;-67
2023/04/30 05:25:10;;;;;;;28.17;15.13;;;14.90;83.70;;;;;;7385455;19;20377;-67
2023/04/30 05:27:38;;;;;;;29.20;15.90;;;14.90;84.00;;;;;;7386425;19;20035;-67
2023/04/30 05:30:09;;;;;;;31.90;15.52;;;14.90;84.30;;;;;;7404909;19;20066;-67
2023/04/30 05:32:40;;;;;;;27.55;16.40;;;14.90;84.60;;;;;;7385751;19;20010;-67
2023/04/30 05:35:10;;;;;;;29.63;15.48;;;15.00;84.60;;;;;;7385692;19;20062;-68
2023/04/30 05:37:38;;;;;;;30.60;16.17;;;15.00;84.60;;;;;;7385206;19;20058;-67
2023/04/30 05:40:11;;;;;;;28.42;15.93;;;15.00;85.50;;;;;;7384394;19;20066;-67
2023/04/30 05:42:42;;;;;;;27.90;16.77;;;15.00;84.90;;;;;;7384765;19;20009;-67
2023/04/30 05:45:13;;;;;;;31.38;16.30;;;15.10;85.30;;;;;;7405546;19;20010;-67
2023/04/30 05:47:44;;;;;;;30.23;15.65;;;15.10;85.50;;;;;;7385734;19;20026;-67
2023/04/30 05:50:13;;;;;;;30.27;16.25;;;15.20;85.60;;;;;;7385571;19;20019;-67
2023/04/30 05:52:42;;;;;;;34.00;17.55;;;15.20;85.60;;;;;;7385601;19;20227;-67
2023/04/30 05:55:11;;;;;;;32.70;18.35;;;15.20;85.80;;;;;;7383933;19;20002;-68
2023/04/30 05:57:40;;;;;;;38.80;19.40;;;15.20;85.80;;;;;;7390392;19;20007;-67
2023/04/30 06:00:11;;;;;;;32.50;17.98;;;15.30;86.00;;;;;;7411722;19;20058;-67
2023/04/30 06:02:40;;;;;;;37.05;19.52;;;15.30;86.00;;;;;;7384912;19;20082;-67
2023/04/30 06:05:11;;;;;;;36.80;19.73;;;15.40;86.00;;;;;;7383578;19;20002;-67
2023/04/30 06:07:40;;;;;;;37.42;21.13;;;15.30;86.20;;;;;;7383924;19;20021;-67
2023/04/30 06:10:11;;;;;;;46.03;21.80;;;15.40;86.30;;;;;;7384194;19;20015;-68
2023/04/30 06:12:40;;;;;;;47.15;22.48;;;15.40;86.30;;;;;;7382958;19;20007;-67
2023/04/30 06:15:10;;;;;;;42.58;23.23;;;15.40;86.20;;;;;;7403909;19;20010;-67
2023/04/30 06:17:38;;;;;;;44.63;23.05;;;15.50;86.40;;;;;;7382867;19;20003;-67
2023/04/30 06:20:13;;;;;;;49.00;23.08;;;15.50;86.30;;;;;;7383876;19;20123;-67
2023/04/30 06:22:42;;;;;;;43.65;22.75;;;15.40;86.40;;;;;;7383558;19;20058;-67
2023/04/30 06:25:11;;;;;;;44.35;23.63;;;15.50;86.40;;;;;;7381436;19;20014;-67
2023/04/30 06:27:40;;;;;;;42.72;23.33;;;15.50;86.30;;;;;;7384099;19;20029;-67
2023/04/30 06:30:10;;;;;;;42.78;22.60;;;15.50;86.40;;;;;;7403098;19;20011;-68
2023/04/30 06:32:40;;;;;;;39.08;22.60;;;15.60;86.60;;;;;;7382339;19;20071;-68
2023/04/30 06:35:11;;;;;;;43.08;22.65;;;15.60;86.40;;;;;;7382968;19;20022;-68
2023/04/30 06:37:40;;;;;;;49.88;24.90;;;15.70;86.90;;;;;;7382868;19;20006;-67
2023/04/30 06:40:10;;;;;;;45.78;24.10;;;15.60;86.20;;;;;;7382204;19;20079;-67
2023/04/30 06:42:39;;;;;;;50.13;25.08;;;15.60;86.40;;;;;;7384145;19;20066;-67
2023/04/30 06:45:09;;;;;;;43.42;23.13;;;15.70;86.60;;;;;;7403806;19;20011;-68
2023/04/30 06:47:37;;;;;;;47.90;24.98;;;15.80;86.60;;;;;;7380602;19;20070;-68
2023/04/30 06:50:07;;;;;;;43.70;24.30;;;15.80;86.30;;;;;;7382208;19;20003;-67
2023/04/30 06:52:39;;;;;;;41.50;24.17;;;15.80;86.30;;;;;;7383285;19;20015;-67
2023/04/30 06:55:08;;;;;;;43.63;24.10;;;15.90;86.10;;;;;;7383425;19;20011;-68
2023/04/30 06:57:38;;;;;;;42.97;24.27;;;15.90;86.10;;;;;;7382609;19;20010;-68
2023/04/30 07:00:08;;;;;;;44.25;25.48;;;16.00;85.90;;;;;;7402966;19;20010;-68
2023/04/30 07:02:37;;;;;;;49.88;25.25;;;16.00;85.90;;;;;;7382058;19;20019;-68
2023/04/30 07:05:06;;;;;;;52.95;27.48;;;16.10;85.80;;;;;;7381615;19;20034;-67
2023/04/30 07:07:37;;;;;;;56.53;27.02;;;16.10;86.60;;;;;;7382950;19;20013;-67
2023/04/30 07:10:07;;;;;;;47.70;25.77;;;16.00;88.80;;;;;;7382129;19;20058;-68
2023/04/30 07:12:36;;;;;;;44.15;24.42;;;16.10;88.00;;;;;;7382233;19;20365;-68
2023/04/30 07:15:04;;;;;;;45.78;25.10;;;16.10;87.40;;;;;;7403629;19;20010;-68
2023/04/30 07:17:34;;;;;;;45.53;25.65;;;16.10;85.90;;;;;;7382219;19;20007;-68
2023/04/30 07:20:03;;;;;;;47.65;26.67;;;16.00;85.50;;;;;;7381696;19;20020;-68
2023/04/30 07:22:32;;;;;;;49.40;25.83;;;16.00;85.50;;;;;;7381760;19;20015;-68
2023/04/30 07:25:04;;;;;;;51.40;25.45;;;15.80;85.50;;;;;;7380865;19;20011;-69
2023/04/30 07:27:33;;;;;;;46.28;26.38;;;15.90;85.90;;;;;;7382116;19;20067;-69
2023/04/30 07:30:02;;;;;;;46.00;24.95;;;15.80;86.00;;;;;;7402134;19;20011;-69
2023/04/30 07:32:30;;;;;;;46.72;25.65;;;15.80;86.20;;;;;;7381281;19;20283;-69
2023/04/30 07:34:59;;;;;;;47.25;25.00;;;16.00;86.30;;;;;;7381233;19;20015;-69
2023/04/30 07:37:28;;;;;;;45.97;24.63;;;16.10;86.20;;;;;;7381406;19;20010;-69
2023/04/30 07:39:56;;;;;;;47.40;25.40;;;16.20;85.80;;;;;;7381692;19;20017;-69
2023/04/30 07:42:27;;;;;;;46.08;25.23;;;16.20;85.20;;;;;;7379909;19;20074;-69
2023/04/30 07:44:56;;;;;;;43.17;24.50;;;16.30;85.20;;;;;;7402584;19;20006;-69
2023/04/30 07:47:25;;;;;;;46.58;25.48;;;16.30;85.00;;;;;;7380986;19;20007;-69
2023/04/30 07:49:54;;;;;;;44.58;24.60;;;16.30;84.90;;;;;;7380839;19;20023;-69
2023/04/30 07:52:23;;;;;;;40.65;23.45;;;16.40;84.90;;;;;;7380423;19;20358;-69
2023/04/30 07:54:51;;;;;;;39.70;23.00;;;16.50;84.40;;;;;;7380003;19;20023;-70
2023/04/30 07:57:20;;;;;;;41.00;23.08;;;16.60;84.10;;;;;;7401592;19;20024;-69
2023/04/30 07:59:51;;;;;;;42.30;24.17;;;16.60;83.80;;;;;;7380774;19;20010;-69
2023/04/30 08:02:20;;;;;;;48.47;24.60;;;16.70;84.10;;;;;;7381124;19;20006;-68
2023/04/30 08:04:49;;;;;;;44.38;24.02;;;16.80;84.50;;;;;;7381933;19;20003;-68
2023/04/30 08:07:19;;;;;;;37.47;22.10;;;16.90;83.60;;;;;;7381093;19;20026;-68
2023/04/30 08:09:48;;;;;;;42.22;23.42;;;16.90;83.20;;;;;;7380831;19;20011;-68
2023/04/30 08:12:19;;;;;;;42.78;23.48;;;16.90;83.20;;;;;;7400762;19;20414;-68
2023/04/30 08:14:47;;;;;;;42.25;22.88;;;17.10;83.30;;;;;;7380265;19;20018;-68
2023/04/30 08:17:18;;;;;;;42.55;23.70;;;17.10;83.50;;;;;;7380204;19;20098;-68
2023/04/30 08:19:47;;;;;;;44.35;25.45;;;17.20;83.20;;;;;;7383521;19;20418;-69
2023/04/30 08:22:16;;;;;;;45.28;25.17;;;17.20;82.70;;;;;;7383925;19;20003;-69
2023/04/30 08:24:44;;;;;;;48.58;23.98;;;17.30;82.70;;;;;;7382377;19;20047;-69
2023/04/30 08:27:13;;;;;;;53.83;25.30;;;17.30;82.40;;;;;;7401230;19;19999;-69
2023/04/30 08:29:42;;;;;;;42.78;24.85;;;17.30;82.10;;;;;;7379853;19;20350;-69
2023/04/30 08:32:10;;;;;;;42.47;24.33;;;17.40;81.90;;;;;;7380120;19;20070;-69
2023/04/30 08:34:42;;;;;;;40.58;23.40;;;17.40;82.20;;;;;;7380394;19;20074;-69
2023/04/30 08:37:11;;;;;;;42.67;23.52;;;17.40;81.80;;;;;;7379153;19;20007;-69
2023/04/30 08:39:39;;;;;;;45.30;23.98;;;17.40;81.50;;;;;;7380034;19;20027;-69
2023/04/30 08:42:11;;;;;;;35.28;21.13;;;17.50;81.90;;;;;;7399813;19;20063;-69
2023/04/30 08:44:42;;;;;;;42.05;22.67;;;17.50;81.80;;;;;;7379154;19;20232;-69
2023/04/30 08:47:15;;;;;;;39.30;21.83;;;17.60;81.90;;;;;;7382388;19;20063;-69
2023/04/30 08:49:47;;;;;;;37.33;22.67;;;17.60;81.80;;;;;;7379568;19;20003;-68
2023/04/30 08:52:16;;;;;;;40.33;22.30;;;17.60;81.60;;;;;;7378800;19;20034;-68
2023/04/30 08:54:46;;;;;;;43.72;20.75;;;17.60;81.50;;;;;;7379551;19;20840;-67
2023/04/30 08:57:15;;;;;;;38.13;20.90;;;17.70;80.90;;;;;;7399354;19;20244;-68
2023/04/30 08:59:46;;;;;;;38.90;20.17;;;17.70;80.10;;;;;;7379078;19;20016;-68
2023/04/30 09:02:15;;;;;;;;;;;17.60;80.50;;;;;;7379321;19;20074;-68
2023/04/30 09:04:47;;;;;;;36.33;19.45;;;17.70;80.50;;;;;;7377885;19;19935;-68
2023/04/30 09:07:16;;;;;;;36.60;19.52;;;17.70;79.90;;;;;;7377584;19;20291;-69
2023/04/30 09:09:45;;;;;;;33.00;19.30;;;17.70;79.30;;;;;;7377269;19;20006;-69
2023/04/30 09:12:16;;;;;;;36.33;20.40;;;17.80;79.60;;;;;;7406741;19;20010;-70
2023/04/30 09:14:58;;;;;;;;;;;17.70;78.90;;;;;;7386192;19;20003;-70
2023/04/30 09:17:27;;;;;;;;;;;17.70;79.00;;;;;;7385009;19;20162;-69
2023/04/30 09:20:08;;;;;;;25.48;13.80;;;17.70;79.00;;;;;;7384854;19;19928;-69
2023/04/30 09:22:38;;;;;;;25.23;15.07;;;17.60;78.00;;;;;;7383887;19;20357;-70
2023/04/30 09:25:08;;;;;;;25.73;15.98;;;17.70;78.60;;;;;;7384097;19;20020;-70
2023/04/30 09:27:37;;;;;;;28.70;15.77;;;17.70;78.80;;;;;;7383751;19;20011;-72
2023/04/30 09:30:06;;;;;;;25.58;15.45;;;17.70;79.40;;;;;;7404928;19;20010;-72
2023/04/30 09:32:35;;;;;;;31.15;15.50;;;17.80;79.30;;;;;;7384795;19;20037;-71
2023/04/30 09:35:07;;;;;;;32.25;17.58;;;17.90;80.20;;;;;;7384848;19;20028;-70
2023/04/30 09:37:39;;;;;;;32.13;17.00;;;17.90;79.60;;;;;;7385511;19;20317;-71
2023/04/30 09:40:10;;;;;;;23.55;13.90;;;17.90;79.60;;;;;;7383429;19;20350;-71
2023/04/30 09:42:39;;;;;;;25.73;14.20;;;18.00;79.50;;;;;;7382733;19;20282;-70
2023/04/30 09:45:10;;;;;;;26.13;15.45;;;18.00;78.60;;;;;;7406566;19;20525;-70
2023/04/30 09:47:41;;;;;;;23.10;14.45;;;18.10;78.50;;;;;;7381857;19;20437;-71
2023/04/30 09:50:15;;;;;;;25.35;15.63;;;18.10;78.00;;;;;;7384371;19;20006;-71
2023/04/30 09:52:53;;;;;;;25.40;14.18;;;18.10;78.20;;;;;;7383209;19;20003;-70
2023/04/30 09:55:23;;;;;;;23.92;13.73;;;18.10;78.30;;;;;;7384860;19;20019;-70
2023/04/30 09:57:52;;;;;;;19.83;11.30;;;18.20;77.90;;;;;;7384903;19;20003;-71
2023/04/30 10:00:22;;;;;;;23.77;13.32;;;18.20;77.30;;;;;;7406182;19;20027;-71
2023/04/30 10:02:51;;;;;;;23.13;13.80;;;18.20;77.50;;;;;;7385153;19;20495;-71
2023/04/30 10:05:23;;;;;;;24.10;14.18;;;18.20;77.50;;;;;;7384251;19;20012;-70
2023/04/30 10:07:51;;;;;;;26.20;15.07;;;18.20;78.50;;;;;;7383888;19;20011;-72
2023/04/30 10:10:21;;;;;;;25.17;14.50;;;18.30;77.50;;;;;;7383920;19;20003;-71
2023/04/30 10:12:53;;;;;;;28.63;16.63;;;18.30;77.50;;;;;;7382891;19;20271;-71
2023/04/30 10:18:22;;;;;;;25.50;14.25;;;18.40;76.00;;;;;;7386477;19;20006;-74
2023/04/30 10:21:08;;;;;;;22.52;13.25;;;18.40;75.70;;;;;;7386543;19;20218;-76
2023/04/30 10:23:51;;;;;;;22.83;13.25;;;18.40;76.30;;;;;;7387952;19;20019;-76
2023/04/30 10:26:20;;;;;;;23.95;12.68;;;18.50;77.30;;;;;;7386814;19;20013;-72
2023/04/30 10:28:52;;;;;;;19.13;10.88;;;18.50;76.90;;;;;;7386398;19;20028;-73
2023/04/30 10:31:22;;;;;;;24.85;13.32;;;18.60;77.20;;;;;;7383877;19;20003;-70
2023/04/30 10:34:01;;;;;;;26.17;12.32;;;18.70;77.00;;;;;;7384168;19;20014;-70
2023/04/30 10:36:47;;;;;;;23.88;12.95;;;18.70;77.60;;;;;;7382597;19;20025;-71
2023/04/30 10:39:20;;;;;;;23.65;12.35;;;18.90;76.50;;;;;;7407410;19;20029;-70
2023/04/30 10:41:49;;;;;;;19.92;12.77;;;19.00;75.80;;;;;;7394436;19;19999;-74
2023/04/30 10:44:25;;;;;;;16.65;11.25;;;19.00;76.60;;;;;;7386945;19;20006;-77
2023/04/30 10:47:03;;;;;;;17.02;9.45;;;19.00;76.30;;;;;;7383713;19;20010;-76
2023/04/30 10:49:43;;;;;;;18.02;10.93;;;19.00;75.50;;;;;;7385508;19;20030;-76
2023/04/30 10:52:28;;;;;;;17.45;11.25;;;19.00;75.60;;;;;;7384242;19;20062;-76
2023/04/30 10:55:08;;;;;;;20.48;11.57;;;19.10;75.30;;;;;;7384806;19;20011;-77
2023/04/30 10:57:45;;;;;;;17.17;11.35;;;19.10;75.30;;;;;;7382475;19;20354;-76
2023/04/30 11:00:21;;;;;;;15.07;9.50;;;19.30;75.60;;;;;;7404522;19;20104;-77
2023/04/30 11:02:57;;;;;;;13.63;8.60;;;19.60;74.50;;;;;;7383957;19;20006;-77
2023/04/30 11:05:39;;;;;;;11.27;6.95;;;19.90;74.70;;;;;;7383296;19;20007;-76
2023/04/30 11:08:13;;;;;;;17.67;9.27;;;20.20;73.00;;;;;;7382527;19;20006;-76
2023/04/30 11:10:59;;;;;;;13.55;8.68;;;20.40;72.10;;;;;;7382337;19;20010;-76
2023/04/30 11:13:28;;;;;;;14.18;8.75;;;20.60;70.60;;;;;;7382377;19;20005;-76
2023/04/30 11:16:04;;;;;;;13.88;8.52;;;20.70;70.20;;;;;;7381157;19;20006;-76
2023/04/30 11:18:33;;;;;;;13.55;8.75;;;20.60;69.60;;;;;;7383210;19;20019;-76
2023/04/30 11:21:04;;;;;;;13.98;9.13;;;20.50;69.30;;;;;;7403502;19;20015;-76
2023/04/30 11:23:36;;;;;;;29.20;18.13;;;20.30;69.10;;;;;;7381901;19;20002;-76
2023/04/30 11:26:05;;;;;;;13.52;9.02;;;20.20;70.20;;;;;;7381405;19;20030;-76
2023/04/30 11:28:36;;;;;;;78.90;40.72;;;20.10;70.90;;;;;;7382340;19;20016;-76
2023/04/30 11:31:05;;;;;;;58.28;31.25;;;20.10;71.60;;;;;;7383445;19;20003;-75
2023/04/30 11:33:35;;;;;;;36.75;21.10;;;20.00;72.30;;;;;;7381796;19;20018;-75
2023/04/30 11:36:04;;;;;;;28.70;15.77;;;20.00;72.50;;;;;;7402558;19;20007;-75
2023/04/30 11:38:37;;;;;;;26.92;17.45;;;20.00;72.70;;;;;;7382234;19;20007;-75
2023/04/30 11:41:08;;;;;;;20.90;11.45;;;20.00;72.70;;;;;;7382344;19;20010;-76
2023/04/30 11:43:37;;;;;;;10.68;7.25;;;19.90;72.60;;;;;;7380892;19;20006;-77
2023/04/30 11:46:09;;;;;;;12.57;8.02;;;20.00;71.50;;;;;;7382689;19;20019;-76
2023/04/30 11:48:41;;;;;;;11.45;7.60;;;20.10;71.00;;;;;;7380749;19;20263;-76
2023/04/30 11:51:20;;;;;;;10.98;7.63;;;20.40;69.60;;;;;;7403964;19;20011;-77
2023/04/30 11:53:53;;;;;;;14.63;9.00;;;20.50;70.20;;;;;;7383277;19;19999;-77
2023/04/30 11:56:23;;;;;;;14.18;8.68;;;20.70;70.00;;;;;;7382130;19;20014;-76
2023/04/30 11:58:55;;;;;;;11.70;8.05;;;20.80;70.40;;;;;;7383292;19;20003;-76
2023/04/30 12:01:28;;;;;;;24.02;12.82;;;20.90;68.50;;;;;;7385368;19;20019;-76
2023/04/30 12:03:59;;;;;;;60.30;32.65;;;20.90;68.70;;;;;;7384693;19;20002;-76
2023/04/30 12:06:29;;;;;;;45.15;22.23;;;20.90;68.80;;;;;;7384521;19;20380;-78
2023/04/30 12:09:03;;;;;;;17.90;10.93;;;20.80;69.10;;;;;;7404548;19;20010;-76
2023/04/30 12:11:33;;;;;;;11.77;8.00;;;20.90;68.50;;;;;;7381495;19;20023;-75
2023/04/30 12:14:06;;;;;;;11.57;7.95;;;21.00;68.80;;;;;;7380870;19;20386;-76
2023/04/30 12:16:47;;;;;;;12.30;7.55;;;20.90;68.60;;;;;;7380809;19;20295;-76
2023/04/30 12:19:16;;;;;;;15.00;8.43;;;20.90;68.80;;;;;;7382684;19;20009;-76
2023/04/30 12:21:47;;;;;;;13.30;8.07;;;20.90;69.00;;;;;;7380965;19;20023;-76
2023/04/30 12:24:20;;;;;;;11.15;7.80;;;20.80;69.10;;;;;;7403008;19;20017;-76
2023/04/30 12:26:49;;;;;;;16.65;8.32;;;20.90;68.20;;;;;;7380462;19;20003;-76
2023/04/30 12:29:20;;;;;;;13.68;8.48;;;21.00;68.80;;;;;;7380876;19;20026;-76
2023/04/30 12:31:51;;;;;;;11.63;7.15;;;20.90;69.10;;;;;;7380417;19;20362;-76
2023/04/30 12:34:20;;;;;;;10.07;6.70;;;21.00;70.00;;;;;;7383084;19;20058;-76
2023/04/30 12:36:49;;;;;;;11.57;6.55;;;21.10;69.70;;;;;;7382057;19;20455;-76
2023/04/30 12:39:20;;;;;;;10.82;7.07;;;21.10;68.80;;;;;;7402907;19;20288;-77
2023/04/30 12:41:50;;;;;;;;;;;21.10;68.40;;;;;;7381435;19;20265;-76
2023/04/30 12:44:20;;;;;;;9.80;7.25;;;21.20;67.90;;;;;;7381939;19;20219;-76
2023/04/30 12:46:50;;;;;;;15.65;6.63;;;21.20;67.70;;;;;;7389760;19;20007;-76
2023/04/30 12:49:26;;;;;;;9.15;6.32;;;21.20;68.50;;;;;;7387484;19;20003;-76
2023/04/30 12:52:40;;;;;;;;;;;;;;;;;;;;;